createdAt,value
2018-12-15T00:02:09.227Z,2.00
2018-12-15T00:04:37.566Z,2.00
2018-12-15T00:07:05.907Z,2.00
2018-12-15T00:09:34.298Z,2.00
2018-12-15T00:12:02.838Z,2.00
2018-12-15T00:14:31.383Z,2.00
2018-12-15T00:17:05.564Z,2.00
2018-12-15T00:19:30.362Z,2.00
2018-12-15T00:21:58.722Z,2.00
2018-12-15T00:24:27.103Z,2.00
2018-12-15T00:26:55.490Z,1.90
2018-12-15T00:29:23.870Z,1.90
2018-12-15T00:31:52.376Z,1.90
2018-12-15T00:34:20.821Z,1.90
2018-12-15T00:36:49.160Z,1.90
2018-12-15T00:39:18.234Z,1.90
2018-12-15T00:41:46.584Z,1.90
2018-12-15T00:44:15.119Z,1.90
2018-12-15T00:46:43.950Z,1.90
2018-12-15T00:49:12.327Z,1.90
2018-12-15T00:51:40.711Z,1.90
2018-12-15T00:54:09.098Z,2.00
2018-12-15T00:56:37.487Z,1.90
2018-12-15T00:59:05.855Z,1.90
2018-12-15T01:01:34.544Z,1.90
2018-12-15T01:04:02.915Z,1.90
2018-12-15T01:06:31.303Z,1.90
2018-12-15T01:08:59.875Z,1.90
2018-12-15T01:11:28.219Z,1.90
2018-12-15T01:13:56.708Z,1.90
2018-12-15T01:16:25.093Z,1.90
2018-12-15T01:18:53.442Z,1.90
2018-12-15T01:21:21.803Z,1.90
2018-12-15T01:23:50.226Z,1.90
2018-12-15T01:26:18.579Z,1.90
2018-12-15T01:28:46.946Z,1.90
2018-12-15T01:31:15.697Z,1.90
2018-12-15T01:33:44.054Z,1.90
2018-12-15T01:36:12.509Z,1.90
2018-12-15T01:38:41.455Z,1.90
2018-12-15T01:41:09.795Z,1.90
2018-12-15T01:43:38.187Z,1.90
2018-12-15T01:46:07.252Z,1.90
2018-12-15T01:48:35.648Z,1.80
2018-12-15T01:51:04.114Z,1.90
2018-12-15T01:53:32.495Z,1.80
2018-12-15T01:56:00.934Z,1.80
2018-12-15T01:58:29.302Z,1.90
2018-12-15T02:00:57.707Z,1.90
2018-12-15T02:03:26.066Z,1.90
2018-12-15T02:05:54.446Z,1.90
2018-12-15T02:08:23.542Z,1.80
2018-12-15T02:10:51.966Z,1.90
2018-12-15T02:13:20.322Z,1.80
2018-12-15T02:15:49.210Z,1.80
2018-12-15T02:18:17.577Z,1.80
2018-12-15T02:20:45.944Z,1.80
2018-12-15T02:23:14.458Z,1.80
2018-12-15T02:25:42.858Z,1.80
2018-12-15T02:28:11.206Z,1.80
2018-12-15T02:30:39.830Z,1.90
2018-12-15T02:33:08.175Z,1.80
2018-12-15T02:35:36.537Z,1.80
2018-12-15T02:38:05.642Z,1.80
2018-12-15T02:40:34.006Z,1.80
2018-12-15T02:43:02.384Z,1.80
2018-12-15T02:45:30.790Z,1.80
2018-12-15T02:47:59.136Z,1.80
2018-12-15T02:50:27.484Z,1.80
2018-12-15T02:52:56.070Z,1.80
2018-12-15T02:55:24.425Z,1.80
2018-12-15T02:57:52.884Z,1.80
2018-12-15T03:00:21.453Z,1.80
2018-12-15T03:02:49.838Z,1.90
2018-12-15T03:05:18.319Z,1.90
2018-12-15T03:07:46.699Z,1.90
2018-12-15T03:10:15.067Z,1.90
2018-12-15T03:12:43.436Z,1.90
2018-12-15T03:15:11.962Z,1.90
2018-12-15T03:17:40.306Z,1.90
2018-12-15T03:20:08.660Z,1.90
2018-12-15T03:22:37.371Z,1.90
2018-12-15T03:25:06.196Z,1.80
2018-12-15T03:27:34.543Z,1.80
2018-12-15T03:30:05.332Z,1.80
2018-12-15T03:32:33.711Z,1.80
2018-12-15T03:35:02.163Z,1.80
2018-12-15T03:37:30.607Z,1.70
2018-12-15T03:39:59.038Z,1.70
2018-12-15T03:42:27.516Z,1.70
2018-12-15T03:44:56.215Z,1.70
2018-12-15T03:47:24.565Z,1.70
2018-12-15T03:49:52.939Z,1.70
2018-12-15T03:52:21.439Z,1.70
2018-12-15T03:54:49.789Z,1.70
2018-12-15T03:57:18.139Z,1.70
2018-12-15T03:59:46.859Z,1.70
2018-12-15T04:02:15.211Z,1.70
2018-12-15T04:04:43.667Z,1.70
2018-12-15T04:07:12.047Z,1.70
2018-12-15T04:09:40.492Z,1.70
2018-12-15T04:12:08.995Z,1.70
2018-12-15T04:14:37.696Z,1.70
2018-12-15T04:17:06.055Z,1.70
2018-12-15T04:19:34.398Z,1.70
2018-12-15T04:22:19.477Z,1.70
2018-12-15T04:24:47.987Z,1.70
2018-12-15T04:27:16.347Z,1.70
2018-12-15T04:29:44.828Z,1.70
2018-12-15T04:32:13.193Z,1.70
2018-12-15T04:34:41.571Z,1.70
2018-12-15T04:37:10.033Z,1.70
2018-12-15T04:39:38.362Z,1.70
2018-12-15T04:42:07.292Z,1.70
2018-12-15T04:44:36.011Z,1.70
2018-12-15T04:47:04.494Z,1.70
2018-12-15T04:49:32.833Z,1.70
2018-12-15T04:52:01.800Z,1.60
2018-12-15T04:54:30.352Z,1.70
2018-12-15T04:56:58.730Z,1.60
2018-12-15T04:59:27.186Z,1.70
2018-12-15T05:01:55.535Z,1.70
2018-12-15T05:04:23.886Z,1.70
2018-12-15T05:06:52.259Z,1.70
2018-12-15T05:09:20.622Z,1.70
2018-12-15T05:11:48.958Z,1.70
2018-12-15T05:14:17.344Z,1.70
2018-12-15T05:16:45.717Z,1.70
2018-12-15T05:19:14.062Z,1.70
2018-12-15T05:21:42.754Z,1.70
2018-12-15T05:24:11.259Z,1.70
2018-12-15T05:26:39.619Z,1.70
2018-12-15T05:29:08.290Z,1.80
2018-12-15T05:31:36.644Z,1.70
2018-12-15T05:34:04.984Z,1.70
2018-12-15T05:36:33.419Z,1.70
2018-12-15T05:39:01.787Z,1.70
2018-12-15T05:41:30.146Z,1.70
2018-12-15T05:43:59.407Z,1.70
2018-12-15T05:46:27.743Z,1.70
2018-12-15T05:48:56.098Z,1.70
2018-12-15T05:51:24.484Z,1.70
2018-12-15T05:53:52.995Z,1.80
2018-12-15T05:56:21.370Z,1.70
2018-12-15T05:58:50.906Z,1.70
2018-12-15T06:01:19.251Z,1.70
2018-12-15T06:03:47.638Z,1.80
2018-12-15T06:06:16.123Z,1.70
2018-12-15T06:08:44.506Z,1.80
2018-12-15T06:11:13.026Z,1.70
2018-12-15T06:13:42.581Z,1.70
2018-12-15T06:16:10.923Z,1.70
2018-12-15T06:18:39.286Z,1.70
2018-12-15T06:21:07.730Z,1.70
2018-12-15T06:23:36.135Z,1.70
2018-12-15T06:26:04.543Z,1.70
2018-12-15T06:28:33.475Z,1.70
2018-12-15T06:31:01.862Z,1.70
2018-12-15T06:33:30.468Z,1.70
2018-12-15T06:35:59.234Z,1.70
2018-12-15T06:38:27.633Z,1.70
2018-12-15T06:40:56.052Z,1.70
2018-12-15T06:43:25.406Z,1.70
2018-12-15T06:45:54.542Z,1.70
2018-12-15T06:48:23.003Z,1.70
2018-12-15T06:50:51.760Z,1.60
2018-12-15T06:53:20.149Z,1.60
2018-12-15T06:55:48.510Z,1.70
2018-12-15T06:58:17.286Z,1.70
2018-12-15T07:00:45.702Z,1.60
2018-12-15T07:03:14.246Z,1.60
2018-12-15T07:05:42.923Z,1.60
2018-12-15T07:08:11.290Z,1.70
2018-12-15T07:10:39.638Z,1.70
2018-12-15T07:13:08.442Z,1.60
2018-12-15T07:15:36.838Z,1.60
2018-12-15T07:18:05.296Z,1.60
2018-12-15T07:20:33.818Z,1.70
2018-12-15T07:23:02.219Z,1.70
2018-12-15T07:25:31.211Z,1.60
2018-12-15T07:28:00.121Z,1.60
2018-12-15T07:30:28.816Z,1.60
2018-12-15T07:32:57.178Z,1.60
2018-12-15T07:35:26.177Z,1.60
2018-12-15T07:37:54.549Z,1.60
2018-12-15T07:40:22.903Z,1.60
2018-12-15T07:42:52.099Z,1.60
2018-12-15T07:45:20.458Z,1.60
2018-12-15T07:47:48.933Z,1.60
2018-12-15T07:50:18.042Z,1.60
2018-12-15T07:52:46.406Z,1.60
2018-12-15T07:55:15.194Z,1.60
2018-12-15T07:57:43.939Z,1.60
2018-12-15T08:00:12.579Z,1.60
2018-12-15T08:02:41.684Z,1.60
2018-12-15T08:05:10.260Z,1.60
2018-12-15T08:07:38.625Z,1.60
2018-12-15T08:10:07.248Z,1.60
2018-12-15T08:12:42.905Z,1.60
2018-12-15T08:15:11.382Z,1.60
2018-12-15T08:17:41.092Z,1.60
2018-12-15T08:20:11.021Z,1.60
2018-12-15T08:22:39.402Z,1.60
2018-12-15T08:25:08.092Z,1.60
2018-12-15T08:27:36.633Z,1.60
2018-12-15T08:30:06.817Z,1.60
2018-12-15T08:32:35.442Z,1.60
2018-12-15T08:35:04.512Z,1.60
2018-12-15T08:37:32.901Z,1.60
2018-12-15T08:40:01.260Z,1.60
2018-12-15T08:42:29.702Z,1.60
2018-12-15T08:44:58.123Z,1.60
2018-12-15T08:47:26.457Z,1.60
2018-12-15T08:49:55.167Z,1.60
2018-12-15T08:52:23.542Z,1.60
2018-12-15T08:54:51.918Z,1.60
2018-12-15T08:57:25.933Z,1.60
2018-12-15T08:59:54.630Z,1.60
2018-12-15T09:02:23.318Z,1.60
2018-12-15T09:04:52.411Z,1.60
2018-12-15T09:07:20.751Z,1.60
2018-12-15T09:09:49.129Z,1.60
2018-12-15T09:12:17.871Z,1.60
2018-12-15T09:14:46.315Z,1.60
2018-12-15T09:17:14.739Z,1.60
2018-12-15T09:19:43.143Z,1.60
2018-12-15T09:22:11.851Z,1.70
2018-12-15T09:24:40.672Z,1.70
2018-12-15T09:27:10.607Z,1.70
2018-12-15T09:29:39.103Z,1.70
2018-12-15T09:32:07.703Z,1.70
2018-12-15T09:34:36.720Z,1.70
2018-12-15T09:37:05.069Z,1.70
2018-12-15T09:39:33.416Z,1.70
2018-12-15T09:42:02.084Z,1.70
2018-12-15T09:44:30.596Z,1.70
2018-12-15T09:46:59.227Z,1.70
2018-12-15T09:49:28.534Z,1.70
2018-12-15T09:51:57.375Z,1.70
2018-12-15T09:54:26.047Z,1.70
2018-12-15T09:56:54.618Z,1.70
2018-12-15T09:59:23.596Z,1.80
2018-12-15T10:01:55.454Z,1.70
2018-12-15T10:04:27.609Z,1.70
2018-12-15T10:06:57.161Z,1.70
2018-12-15T10:09:25.878Z,1.70
2018-12-15T10:11:54.283Z,1.70
2018-12-15T10:14:23.142Z,1.70
2018-12-15T10:16:51.620Z,1.80
2018-12-15T10:19:24.325Z,1.80
2018-12-15T10:21:51.230Z,1.80
2018-12-15T10:24:19.762Z,1.80
2018-12-15T10:26:48.292Z,1.80
2018-12-15T10:29:28.193Z,1.90
2018-12-15T10:32:01.828Z,1.90
2018-12-15T10:34:31.150Z,1.90
2018-12-15T10:36:59.667Z,1.90
2018-12-15T10:39:28.039Z,1.90
2018-12-15T10:41:56.921Z,1.90
2018-12-15T10:44:25.543Z,1.80
2018-12-15T10:46:54.747Z,1.90
2018-12-15T10:49:23.290Z,1.90
2018-12-15T10:51:51.938Z,1.90
2018-12-15T10:54:21.031Z,1.80
2018-12-15T10:56:50.023Z,1.80
2018-12-15T10:59:18.469Z,1.80
2018-12-15T11:01:47.691Z,1.80
2018-12-15T11:04:16.250Z,1.80
2018-12-15T11:07:06.919Z,1.80
2018-12-15T11:09:35.771Z,1.80
2018-12-15T11:12:04.177Z,1.80
2018-12-15T11:14:32.622Z,1.80
2018-12-15T11:17:01.134Z,1.80
2018-12-15T11:19:29.955Z,1.80
2018-12-15T11:21:58.638Z,1.80
2018-12-15T11:24:28.396Z,1.80
2018-12-15T11:26:57.471Z,1.90
2018-12-15T11:29:25.900Z,1.80
2018-12-15T11:31:54.426Z,1.90
2018-12-15T11:34:22.803Z,1.90
2018-12-15T11:36:51.950Z,1.80
2018-12-15T11:39:21.380Z,1.80
2018-12-15T11:41:50.269Z,1.80
2018-12-15T11:44:18.734Z,1.80
2018-12-15T11:46:47.411Z,1.70
2018-12-15T11:49:15.911Z,1.80
2018-12-15T11:51:44.668Z,1.70
2018-12-15T11:54:13.879Z,1.80
2018-12-15T11:56:42.465Z,1.80
2018-12-15T11:59:11.187Z,1.80
2018-12-15T12:01:40.063Z,1.80
2018-12-15T12:04:08.478Z,1.80
2018-12-15T12:06:37.176Z,1.80
2018-12-15T12:09:08.640Z,1.80
2018-12-15T12:11:37.427Z,1.80
2018-12-15T12:14:06.328Z,1.90
2018-12-15T12:16:35.562Z,1.80
2018-12-15T12:19:04.376Z,1.90
2018-12-15T12:21:32.741Z,1.90
2018-12-15T12:24:01.228Z,1.90
2018-12-15T12:26:29.593Z,1.90
2018-12-15T12:28:57.936Z,1.90
2018-12-15T12:31:26.931Z,1.90
2018-12-15T12:33:55.312Z,1.90
2018-12-15T12:36:23.685Z,2.00
2018-12-15T12:38:52.307Z,1.90
2018-12-15T12:41:21.126Z,1.90
2018-12-15T12:43:49.542Z,1.90
2018-12-15T12:46:18.514Z,2.00
2018-12-15T12:48:46.895Z,1.90
2018-12-15T12:51:15.806Z,1.90
2018-12-15T12:53:44.807Z,1.90
2018-12-15T12:56:13.245Z,1.90
2018-12-15T12:58:41.756Z,1.90
2018-12-15T13:01:10.123Z,1.90
2018-12-15T13:03:38.565Z,1.90
2018-12-15T13:06:06.922Z,1.90
2018-12-15T13:08:35.904Z,1.90
2018-12-15T13:11:04.362Z,1.90
2018-12-15T13:13:33.872Z,1.90
2018-12-15T13:16:03.542Z,1.90
2018-12-15T13:18:35.790Z,1.90
2018-12-15T13:21:04.271Z,1.90
2018-12-15T13:23:32.664Z,1.90
2018-12-15T13:26:02.194Z,1.90
2018-12-15T13:28:32.797Z,2.00
2018-12-15T13:31:01.166Z,1.90
2018-12-15T13:33:33.550Z,2.00
2018-12-15T13:36:02.047Z,2.00
2018-12-15T13:38:30.493Z,1.90
2018-12-15T13:40:59.183Z,2.00
2018-12-15T13:43:27.672Z,2.00
2018-12-15T13:45:56.282Z,2.00
2018-12-15T13:48:25.026Z,2.00
2018-12-15T13:50:53.395Z,1.90
2018-12-15T13:53:21.739Z,2.00
2018-12-15T13:55:50.256Z,1.90
2018-12-15T13:58:18.591Z,1.90
2018-12-15T14:00:47.022Z,2.00
2018-12-15T14:03:15.647Z,2.00
2018-12-15T14:05:44.519Z,1.90
2018-12-15T14:08:12.863Z,1.90
2018-12-15T14:10:41.686Z,2.00
2018-12-15T14:13:10.146Z,1.90
2018-12-15T14:15:38.527Z,1.90
2018-12-15T14:18:07.055Z,1.90
2018-12-15T14:20:35.426Z,1.90
2018-12-15T14:23:03.827Z,1.90
2018-12-15T14:25:34.981Z,1.90
2018-12-15T14:28:03.407Z,2.00
2018-12-15T14:30:32.010Z,1.90
2018-12-15T14:33:02.078Z,1.90
2018-12-15T14:35:33.839Z,1.90
2018-12-15T14:38:06.603Z,1.90
2018-12-15T14:40:35.155Z,1.90
2018-12-15T14:43:03.546Z,1.90
2018-12-15T14:45:31.934Z,1.90
2018-12-15T14:48:00.303Z,1.90
2018-12-15T14:50:28.831Z,1.90
2018-12-15T14:52:57.636Z,1.90
2018-12-15T14:55:26.027Z,1.90
2018-12-15T14:57:54.367Z,1.90
2018-12-15T15:00:23.374Z,1.90
2018-12-15T15:02:52.037Z,1.90
2018-12-15T15:05:20.486Z,1.90
2018-12-15T15:07:49.460Z,1.90
2018-12-15T15:10:18.104Z,1.90
2018-12-15T15:12:46.567Z,1.90
2018-12-15T15:15:14.967Z,1.90
2018-12-15T15:17:43.462Z,1.90
2018-12-15T15:20:12.039Z,1.90
2018-12-15T15:22:40.518Z,1.90
2018-12-15T15:25:09.061Z,1.90
2018-12-15T15:27:37.779Z,1.90
2018-12-15T15:30:07.723Z,1.90
2018-12-15T15:32:36.547Z,1.80
2018-12-15T15:35:06.507Z,1.80
2018-12-15T15:37:35.123Z,1.80
2018-12-15T15:40:03.957Z,1.80
2018-12-15T15:42:32.307Z,1.80
2018-12-15T15:45:01.593Z,1.80
2018-12-15T15:47:29.945Z,1.80
2018-12-15T15:49:58.287Z,1.80
2018-12-15T15:52:27.190Z,1.70
2018-12-15T15:54:55.582Z,1.80
2018-12-15T15:57:24.386Z,1.70
2018-12-15T15:59:53.016Z,1.70
2018-12-15T16:02:21.460Z,1.60
2018-12-15T16:04:50.458Z,1.60
2018-12-15T16:07:19.093Z,1.50
2018-12-15T16:09:47.527Z,1.60
2018-12-15T16:12:16.103Z,1.50
2018-12-15T16:14:44.519Z,1.40
2018-12-15T16:17:14.226Z,1.40
2018-12-15T16:19:42.791Z,1.40
2018-12-15T16:22:11.887Z,1.40
2018-12-15T16:24:40.371Z,1.40
2018-12-15T16:27:09.279Z,1.30
2018-12-15T16:29:38.187Z,1.30
2018-12-15T16:32:07.018Z,1.30
2018-12-15T16:34:36.282Z,1.30
2018-12-15T16:37:04.912Z,1.30
2018-12-15T16:39:33.327Z,1.20
2018-12-15T16:42:02.606Z,1.30
2018-12-15T16:44:31.306Z,1.20
2018-12-15T16:46:59.683Z,1.30
2018-12-15T16:49:28.567Z,1.20
2018-12-15T16:51:57.134Z,1.30
2018-12-15T16:54:25.499Z,1.30
2018-12-15T16:56:55.399Z,1.30
2018-12-15T16:59:28.256Z,1.30
2018-12-15T17:01:57.902Z,1.30
2018-12-15T17:04:27.288Z,1.30
2018-12-15T17:06:56.170Z,1.20
2018-12-15T17:09:24.526Z,1.20
2018-12-15T17:11:53.032Z,1.30
2018-12-15T17:14:21.698Z,1.20
2018-12-15T17:16:50.343Z,1.10
2018-12-15T17:19:18.867Z,1.10
2018-12-15T17:21:47.551Z,1.10
2018-12-15T17:24:16.627Z,1.00
2018-12-15T17:26:45.034Z,1.00
2018-12-15T17:29:14.112Z,1.00
2018-12-15T17:31:42.650Z,1.00
2018-12-15T17:34:11.030Z,1.00
2018-12-15T17:36:39.421Z,1.00
2018-12-15T17:39:08.246Z,1.00
2018-12-15T17:41:36.677Z,1.10
2018-12-15T17:44:05.072Z,1.00
2018-12-15T17:46:34.465Z,1.00
2018-12-15T17:49:02.836Z,1.00
2018-12-15T17:51:31.434Z,1.00
2018-12-15T17:54:00.021Z,1.00
2018-12-15T17:56:28.403Z,1.00
2018-12-15T17:58:56.803Z,1.00
2018-12-15T18:01:25.354Z,1.00
2018-12-15T18:03:53.727Z,1.00
2018-12-15T18:06:22.882Z,1.00
2018-12-15T18:08:51.338Z,1.00
2018-12-15T18:11:19.718Z,1.00
2018-12-15T18:13:48.619Z,1.00
2018-12-15T18:16:16.991Z,1.00
2018-12-15T18:18:45.379Z,1.00
2018-12-15T18:21:14.458Z,1.00
2018-12-15T18:23:42.843Z,0.90
2018-12-15T18:26:11.214Z,0.90
2018-12-15T18:28:40.555Z,1.00
2018-12-15T18:31:08.935Z,0.90
2018-12-15T18:33:37.315Z,0.90
2018-12-15T18:36:06.279Z,0.90
2018-12-15T18:38:34.734Z,0.90
2018-12-15T18:41:03.289Z,0.90
2018-12-15T18:43:31.958Z,0.80
2018-12-15T18:46:00.400Z,0.80
2018-12-15T18:48:28.778Z,0.80
2018-12-15T18:50:57.186Z,0.80
2018-12-15T18:53:25.599Z,0.80
2018-12-15T18:55:53.971Z,0.80
2018-12-15T18:58:22.458Z,0.80
2018-12-15T19:00:50.934Z,0.70
2018-12-15T19:03:19.312Z,0.70
2018-12-15T19:05:47.860Z,0.70
2018-12-15T19:08:16.304Z,0.70
2018-12-15T19:10:45.917Z,0.70
2018-12-15T19:13:14.572Z,0.70
2018-12-15T19:15:42.940Z,0.70
2018-12-15T19:18:11.436Z,0.70
2018-12-15T19:20:40.310Z,0.70
2018-12-15T19:23:08.687Z,0.70
2018-12-15T19:25:37.154Z,0.70
2018-12-15T19:28:05.819Z,0.70
2018-12-15T19:30:34.219Z,0.70
2018-12-15T19:33:02.851Z,0.70
2018-12-15T19:35:31.252Z,0.70
2018-12-15T19:37:59.703Z,0.70
2018-12-15T19:40:29.334Z,0.70
2018-12-15T19:42:57.751Z,0.70
2018-12-15T19:45:26.169Z,0.70
2018-12-15T19:47:54.874Z,0.70
2018-12-15T19:50:23.560Z,0.70
2018-12-15T19:52:52.235Z,0.70
2018-12-15T19:55:20.698Z,0.70
2018-12-15T19:57:49.244Z,0.70
2018-12-15T20:00:17.968Z,0.70
2018-12-15T20:02:47.164Z,0.70
2018-12-15T20:05:15.930Z,0.70
2018-12-15T20:07:44.307Z,0.70
2018-12-15T20:10:13.327Z,0.70
2018-12-15T20:12:42.389Z,0.80
2018-12-15T20:15:11.868Z,0.80
2018-12-15T20:17:40.519Z,0.80
2018-12-15T20:20:12.499Z,0.80
2018-12-15T20:22:40.925Z,0.80
2018-12-15T20:25:09.601Z,0.80
2018-12-15T20:27:38.789Z,0.80
2018-12-15T20:30:08.982Z,0.80
2018-12-15T20:32:38.168Z,0.90
2018-12-15T20:35:06.799Z,0.90
2018-12-15T20:37:35.263Z,0.90
2018-12-15T20:40:05.039Z,0.90
2018-12-15T20:42:33.512Z,0.90
2018-12-15T20:45:01.967Z,0.90
2018-12-15T20:47:32.541Z,0.90
2018-12-15T20:50:01.395Z,0.90
2018-12-15T20:52:30.319Z,0.90
2018-12-15T20:54:59.620Z,0.90
2018-12-15T20:57:28.132Z,0.90
2018-12-15T20:59:56.570Z,0.90
2018-12-15T21:02:26.443Z,1.00
2018-12-15T21:04:54.867Z,1.00
2018-12-15T21:07:23.268Z,1.00
2018-12-15T21:09:52.715Z,1.00
2018-12-15T21:12:21.115Z,1.00
2018-12-15T21:14:49.680Z,1.00
2018-12-15T21:17:19.699Z,1.10
2018-12-15T21:19:48.332Z,1.10
2018-12-15T21:22:17.729Z,1.10
2018-12-15T21:24:46.219Z,1.10
2018-12-15T21:27:14.683Z,1.10
2018-12-15T21:29:43.636Z,1.10
2018-12-15T21:32:12.130Z,1.10
2018-12-15T21:34:40.554Z,1.10
2018-12-15T21:37:09.018Z,1.20
2018-12-15T21:39:37.522Z,1.10
2018-12-15T21:42:05.928Z,1.20
2018-12-15T21:44:34.396Z,1.20
2018-12-15T21:47:03.342Z,1.20
2018-12-15T21:49:31.715Z,1.20
2018-12-15T21:52:00.116Z,1.20
2018-12-15T21:54:28.477Z,1.20
2018-12-15T21:56:56.939Z,1.20
2018-12-15T21:59:25.330Z,1.20
2018-12-15T22:01:54.231Z,1.20
2018-12-15T22:04:22.711Z,1.30
2018-12-15T22:06:51.079Z,1.30
2018-12-15T22:09:20.282Z,1.30
2018-12-15T22:15:19.570Z,1.40
2018-12-15T22:17:48.055Z,1.40
2018-12-15T22:20:16.646Z,1.40
2018-12-15T22:22:45.352Z,1.40
2018-12-15T22:25:13.694Z,1.40
2018-12-15T22:27:42.071Z,1.40
2018-12-15T22:30:10.699Z,1.40
2018-12-15T22:32:39.054Z,1.40
2018-12-15T22:35:07.723Z,1.40
2018-12-15T22:37:36.161Z,1.40
2018-12-15T22:40:04.798Z,1.40
2018-12-15T22:42:33.190Z,1.40
2018-12-15T22:45:02.114Z,1.40
2018-12-15T22:47:30.483Z,1.50
2018-12-15T22:49:58.859Z,1.50
2018-12-15T22:52:27.595Z,1.50
2018-12-15T22:54:55.979Z,1.50
2018-12-15T22:57:24.354Z,1.50
2018-12-15T22:59:52.839Z,1.50
2018-12-15T23:02:21.215Z,1.50
2018-12-15T23:04:49.583Z,1.50
2018-12-15T23:07:18.098Z,1.50
2018-12-15T23:09:46.459Z,1.50
2018-12-15T23:12:14.926Z,1.50
2018-12-15T23:14:43.625Z,1.50
2018-12-15T23:17:12.094Z,1.60
2018-12-15T23:19:40.480Z,1.50
2018-12-15T23:22:16.154Z,1.60
2018-12-15T23:24:39.886Z,1.60
2018-12-15T23:27:08.334Z,1.60
2018-12-15T23:29:37.255Z,1.50
2018-12-15T23:32:05.714Z,1.30
2018-12-15T23:34:34.195Z,1.10
2018-12-15T23:37:03.271Z,0.90
2018-12-15T23:39:31.848Z,0.80
2018-12-15T23:42:00.251Z,0.70
2018-12-15T23:44:28.791Z,0.60
2018-12-15T23:46:57.158Z,0.50
2018-12-15T23:49:25.542Z,0.50
2018-12-15T23:51:53.930Z,0.40
2018-12-15T23:54:22.356Z,0.30
2018-12-15T23:56:50.731Z,0.30
2018-12-15T23:59:19.442Z,0.30
